Gage, Kentucky
Current Conditions -  °F | °C
As of 1:53 PM on Sunday 23 Nov 2014 (Local Time) from KPAH Reporting Station
Light Rain Light Rain  
Wind Chill: 56°   Ceiling: 700
Heat Index: 56°   Visibility: 4mi
Dew Point: 55°   Wind: 8mph
Humidity: 97%   Direction: 100°E
Pressure: 29.43"   Gusts: NA
Location:  37.1019°N, 88.9715°W
Report Text: KPAH 231953Z 10007KT 4SM -RA BR BKN007 OVC011 13/13 A2943 RMK AO2 CIG 005V010 PRESFR SLP965 P0013 T01330128 $
Loading
Personal Weather Stations






























Interactive Weather Map New forecast layout! Learn more

10-Day Weather Forecast

Advertisements
Track Severe Weather on mobile